createdAt,value
2019-05-12T00:02:12.571Z,95117.70
2019-05-12T00:04:38.618Z,95110.14
2019-05-12T00:07:04.626Z,95107.98
2019-05-12T00:09:30.620Z,95114.55
2019-05-12T00:11:58.889Z,95111.47
2019-05-12T00:14:22.649Z,95110.14
2019-05-12T00:16:49.219Z,95107.98
2019-05-12T00:19:14.667Z,95110.22
2019-05-12T00:21:40.681Z,95118.11
2019-05-12T00:24:08.035Z,95116.06
2019-05-12T00:26:32.702Z,95114.02
2019-05-12T00:28:58.895Z,95118.95
2019-05-12T00:31:24.715Z,95112.80
2019-05-12T00:33:50.710Z,95115.87
2019-05-12T00:36:18.566Z,95116.67
2019-05-12T00:38:42.723Z,95112.88
2019-05-12T00:41:08.890Z,95113.71
2019-05-12T00:43:34.747Z,95113.30
2019-05-12T00:46:00.746Z,95112.08
2019-05-12T00:48:28.388Z,95118.11
2019-05-12T00:50:52.760Z,95116.86
2019-05-12T00:53:19.069Z,95119.52
2019-05-12T00:55:44.826Z,95120.47
2019-05-12T00:58:10.850Z,95119.02
2019-05-12T01:00:39.480Z,95115.04
2019-05-12T01:03:02.863Z,95117.70
2019-05-12T01:05:29.520Z,95118.61
2019-05-12T01:07:54.879Z,95119.02
2019-05-12T01:10:20.900Z,95117.81
2019-05-12T01:12:48.594Z,95114.20
2019-05-12T01:15:12.908Z,95118.20
2019-05-12T01:17:40.526Z,95115.53
2019-05-12T01:20:04.901Z,95118.11
2019-05-12T01:22:30.923Z,95119.94
2019-05-12T01:24:57.838Z,95125.36
2019-05-12T01:27:22.976Z,95128.44
2019-05-12T01:29:48.991Z,95131.89
2019-05-12T01:32:14.979Z,95129.77
2019-05-12T01:34:40.992Z,95127.91
2019-05-12T01:37:07.938Z,95126.16
2019-05-12T01:39:32.996Z,95132.01
2019-05-12T01:41:59.026Z,95134.66
2019-05-12T01:44:28.621Z,95139.06
2019-05-12T01:46:51.038Z,95133.41
2019-05-12T01:49:18.660Z,95132.80
2019-05-12T01:51:43.177Z,95132.80
2019-05-12T01:54:14.581Z,95137.73
2019-05-12T01:56:35.191Z,95133.33
2019-05-12T01:59:01.218Z,95136.91
2019-05-12T02:01:28.083Z,95140.39
2019-05-12T02:03:53.273Z,95139.98
2019-05-12T02:06:19.275Z,95136.41
2019-05-12T02:08:47.607Z,95136.80
2019-05-12T02:11:11.295Z,95132.01
2019-05-12T02:13:38.089Z,95137.73
2019-05-12T02:16:03.306Z,95140.39
2019-05-12T02:18:29.308Z,95141.80
2019-05-12T02:20:57.648Z,95138.73
2019-05-12T02:23:21.329Z,95144.38
2019-05-12T02:25:48.350Z,95151.02
2019-05-12T02:28:13.351Z,95150.00
2019-05-12T02:30:41.464Z,95149.28
2019-05-12T02:33:05.456Z,95145.70
2019-05-12T02:35:31.378Z,95153.27
2019-05-12T02:37:57.395Z,95150.19
2019-05-12T02:40:25.144Z,95157.66
2019-05-12T02:42:49.420Z,95158.05
2019-05-12T02:45:15.687Z,95149.77
2019-05-12T02:47:41.413Z,95152.35
2019-05-12T02:50:07.431Z,95153.67
2019-05-12T02:52:34.717Z,95151.10
2019-05-12T02:55:00.699Z,95146.20
2019-05-12T02:57:25.845Z,95151.10
2019-05-12T02:59:53.897Z,95153.76
2019-05-12T03:02:17.517Z,95155.50
2019-05-12T03:04:44.204Z,95161.73
2019-05-12T03:07:09.549Z,95159.91
2019-05-12T03:09:35.531Z,95163.47
2019-05-12T03:12:01.537Z,95173.69
2019-05-12T03:14:27.543Z,95179.83
2019-05-12T03:16:54.043Z,95178.09
2019-05-12T03:19:19.579Z,95181.16
2019-05-12T03:21:45.577Z,95187.38
2019-05-12T03:24:14.488Z,95188.30
2019-05-12T03:26:37.607Z,95187.38
2019-05-12T03:29:05.802Z,95181.23
2019-05-12T03:31:31.851Z,95182.56
2019-05-12T03:34:00.108Z,95183.89
2019-05-12T03:36:32.275Z,95191.06
2019-05-12T03:38:47.656Z,95195.36
2019-05-12T03:41:14.637Z,95186.97
2019-05-12T03:43:39.678Z,95189.21
2019-05-12T03:46:05.680Z,95184.73
2019-05-12T03:48:34.734Z,95189.63
2019-05-12T03:50:57.696Z,95180.75
2019-05-12T03:53:24.788Z,95186.06
2019-05-12T03:55:49.728Z,95180.75
2019-05-12T03:58:15.733Z,95184.73
2019-05-12T04:00:44.192Z,95183.89
2019-05-12T04:03:07.744Z,95183.89
2019-05-12T04:05:34.839Z,95189.63
2019-05-12T04:07:59.772Z,95190.95
2019-05-12T04:10:25.770Z,95191.45
2019-05-12T04:12:54.652Z,95194.94
2019-05-12T04:15:17.801Z,95197.10
2019-05-12T04:17:45.149Z,95194.94
2019-05-12T04:20:09.818Z,95190.95
2019-05-12T04:22:35.810Z,95189.63
2019-05-12T04:25:05.054Z,95198.92
2019-05-12T04:27:27.884Z,95199.84
2019-05-12T04:29:54.760Z,95196.69
2019-05-12T04:32:19.919Z,95197.10
2019-05-12T04:34:45.917Z,95204.23
2019-05-12T04:37:14.578Z,95201.58
2019-05-12T04:39:37.929Z,95210.28
2019-05-12T04:42:05.327Z,95205.88
2019-05-12T04:44:29.955Z,95202.72
2019-05-12T04:46:55.970Z,95208.87
2019-05-12T04:49:25.021Z,95200.06
2019-05-12T04:51:47.981Z,95196.91
2019-05-12T04:54:15.217Z,95203.14
2019-05-12T04:56:39.990Z,95203.14
2019-05-12T04:59:06.022Z,95199.56
2019-05-12T05:01:34.665Z,95199.45
2019-05-12T05:03:58.049Z,95200.78
2019-05-12T05:06:25.306Z,95213.99
2019-05-12T05:08:50.049Z,95210.01
2019-05-12T05:11:16.045Z,95202.95
2019-05-12T05:13:44.403Z,95200.59
2019-05-12T05:16:08.059Z,95203.17
2019-05-12T05:18:34.483Z,95197.45
2019-05-12T05:21:00.088Z,95203.59
2019-05-12T05:23:26.103Z,95201.73
2019-05-12T05:25:53.845Z,95201.73
2019-05-12T05:28:18.122Z,95199.91
2019-05-12T05:30:44.307Z,95205.53
2019-05-12T05:33:10.292Z,95205.03
2019-05-12T05:35:39.534Z,95198.47
2019-05-12T05:38:04.327Z,95186.93
2019-05-12T05:40:30.284Z,95191.75
2019-05-12T05:42:54.374Z,95189.59
2019-05-12T05:45:24.139Z,95196.23
2019-05-12T05:47:48.987Z,95191.75
2019-05-12T05:50:13.541Z,95191.75
2019-05-12T05:52:38.965Z,95187.77
2019-05-12T05:55:05.870Z,95186.84
2019-05-12T05:57:30.632Z,95188.59
2019-05-12T05:59:56.625Z,95188.98
2019-05-12T06:02:31.276Z,95188.91
2019-05-12T06:04:49.813Z,95196.88
2019-05-12T06:07:14.671Z,95194.63
2019-05-12T06:09:40.674Z,95188.91
2019-05-12T06:12:09.673Z,95192.28
2019-05-12T06:14:34.242Z,95191.06
2019-05-12T06:16:58.926Z,95195.84
2019-05-12T06:19:26.277Z,95191.86
2019-05-12T06:21:53.308Z,95194.52
2019-05-12T06:24:20.041Z,95189.63
2019-05-12T06:26:56.688Z,95187.88
2019-05-12T06:29:11.362Z,95188.30
2019-05-12T06:31:35.483Z,95188.30
2019-05-12T06:34:07.292Z,95183.39
2019-05-12T06:36:27.531Z,95189.13
2019-05-12T06:38:54.143Z,95184.72
2019-05-12T06:41:21.012Z,95188.70
2019-05-12T06:43:45.520Z,95194.75
2019-05-12T06:46:11.860Z,95190.04
2019-05-12T06:48:37.544Z,95194.02
2019-05-12T06:51:04.113Z,95197.09
2019-05-12T06:53:31.068Z,95196.57
2019-05-12T06:55:55.598Z,95199.64
2019-05-12T06:58:29.552Z,95194.33
2019-05-12T07:00:47.627Z,95204.95
2019-05-12T07:03:14.237Z,95197.52
2019-05-12T07:05:42.511Z,95194.86
2019-05-12T07:08:05.935Z,95182.06
2019-05-12T07:10:43.530Z,95184.72
2019-05-12T07:13:01.687Z,95186.88
2019-05-12T07:15:24.030Z,95183.81
2019-05-12T07:17:50.122Z,95180.24
2019-05-12T07:20:16.544Z,95175.31
2019-05-12T07:22:45.885Z,95167.53
2019-05-12T07:25:08.605Z,95167.75
2019-05-12T07:27:39.299Z,95160.20
2019-05-12T07:30:00.634Z,95163.69
2019-05-12T07:32:26.628Z,95162.36
2019-05-12T07:34:54.351Z,95157.23
2019-05-12T07:37:18.893Z,95158.79
2019-05-12T07:39:49.310Z,95153.06
2019-05-12T07:42:10.911Z,95140.58
2019-05-12T07:44:40.317Z,95139.77
2019-05-12T07:47:03.587Z,95136.20
2019-05-12T07:49:34.359Z,95139.77
2019-05-12T07:51:54.982Z,95134.88
2019-05-12T07:54:20.983Z,95139.24
2019-05-12T07:56:47.003Z,95139.58
2019-05-12T07:59:13.568Z,95133.73
2019-05-12T08:01:46.637Z,95124.44
2019-05-12T08:04:05.055Z,95130.17
2019-05-12T08:06:32.555Z,95126.59
2019-05-12T08:08:59.077Z,95126.70
2019-05-12T08:11:23.684Z,95122.11
2019-05-12T08:13:49.321Z,95124.77
2019-05-12T08:16:19.485Z,95122.11
2019-05-12T08:18:41.339Z,95122.53
2019-05-12T08:21:07.753Z,95118.35
2019-05-12T08:23:33.993Z,95116.41
2019-05-12T08:26:03.443Z,95117.74
2019-05-12T08:28:34.899Z,95111.93
2019-05-12T08:30:54.676Z,95108.66
2019-05-12T08:33:17.922Z,95104.98
2019-05-12T08:35:44.085Z,95089.45
2019-05-12T08:38:09.924Z,95094.16
2019-05-12T08:40:39.761Z,95098.25
2019-05-12T08:43:08.010Z,95099.58
2019-05-12T08:45:34.126Z,95104.90
2019-05-12T08:47:54.614Z,95100.38
2019-05-12T08:50:23.250Z,95100.38
2019-05-12T08:52:46.158Z,95099.58
2019-05-12T08:55:14.725Z,95104.90
2019-05-12T08:57:40.902Z,95103.88
2019-05-12T09:00:08.574Z,95106.75
2019-05-12T09:02:30.422Z,95101.13
2019-05-12T09:04:56.474Z,95097.98
2019-05-12T09:07:24.232Z,95091.33
2019-05-12T09:09:48.496Z,95096.23
2019-05-12T09:12:15.489Z,95091.75
2019-05-12T09:14:46.126Z,95094.91
2019-05-12T09:17:07.732Z,95089.17
2019-05-12T09:19:33.758Z,95096.23
2019-05-12T09:22:04.912Z,95097.34
2019-05-12T09:24:27.393Z,95102.38
2019-05-12T09:26:53.878Z,95102.68
2019-05-12T09:29:18.072Z,95099.72
2019-05-12T09:31:44.148Z,95092.05
2019-05-12T09:34:13.500Z,95097.59
2019-05-12T09:36:36.238Z,95100.25
2019-05-12T09:39:03.795Z,95099.14
2019-05-12T09:41:28.260Z,95094.23
2019-05-12T09:43:54.292Z,95087.89
2019-05-12T09:46:20.357Z,95095.38
2019-05-12T09:48:52.007Z,95096.54
2019-05-12T09:51:13.405Z,95099.08
2019-05-12T09:53:42.891Z,95095.02
2019-05-12T09:56:04.658Z,95092.24
2019-05-12T09:58:30.650Z,95089.17
2019-05-12T10:00:57.101Z,95092.05
2019-05-12T10:03:24.228Z,95086.73
2019-05-12T10:05:49.069Z,95093.30
2019-05-12T10:08:15.175Z,95083.08
2019-05-12T10:10:44.548Z,95088.28
2019-05-12T10:13:07.243Z,95088.70
2019-05-12T10:15:33.327Z,95084.21
2019-05-12T10:18:00.170Z,95079.61
2019-05-12T10:20:29.211Z,95071.72
2019-05-12T10:22:51.359Z,95073.98
2019-05-12T10:25:17.385Z,95072.25
2019-05-12T10:27:44.274Z,95068.06
2019-05-12T10:30:12.133Z,95066.20
2019-05-12T10:32:35.400Z,95055.16
2019-05-12T10:35:01.469Z,95052.91
2019-05-12T10:37:29.449Z,95050.47
2019-05-12T10:39:54.117Z,95050.17
2019-05-12T10:42:19.577Z,95056.41
2019-05-12T10:44:45.645Z,95052.00
2019-05-12T10:47:13.491Z,95052.11
2019-05-12T10:49:37.649Z,95041.06
2019-05-12T10:52:03.987Z,95044.22
2019-05-12T10:54:29.703Z,95046.99
2019-05-12T10:56:55.701Z,95045.13
2019-05-12T10:59:32.300Z,95048.70
2019-05-12T11:01:49.165Z,95044.63
2019-05-12T11:04:14.331Z,95045.85
2019-05-12T11:06:44.029Z,95046.60
2019-05-12T11:09:05.762Z,95033.69
2019-05-12T11:11:32.984Z,95030.75
2019-05-12T11:13:57.782Z,95035.95
2019-05-12T11:16:30.751Z,95031.77
2019-05-12T11:18:49.842Z,95032.41
2019-05-12T11:21:15.870Z,95031.80
2019-05-12T11:23:43.669Z,95033.56
2019-05-12T11:26:07.893Z,95038.18
2019-05-12T11:28:33.912Z,95027.43
2019-05-12T11:30:59.931Z,95031.13
2019-05-12T11:33:25.953Z,95030.11
2019-05-12T11:35:54.063Z,95029.91
2019-05-12T11:38:17.970Z,95030.65
2019-05-12T11:40:43.969Z,95020.50
2019-05-12T11:43:09.954Z,95021.86
2019-05-12T11:45:36.018Z,95015.84
2019-05-12T11:48:05.950Z,95015.20
2019-05-12T11:50:28.079Z,95018.28
2019-05-12T11:52:54.096Z,95024.02
2019-05-12T11:55:21.451Z,95027.17
2019-05-12T11:57:46.657Z,95026.99
2019-05-12T12:00:13.717Z,95029.87
2019-05-12T12:02:38.651Z,95030.50
2019-05-12T12:05:04.674Z,95022.42
2019-05-12T12:07:32.878Z,95021.33
2019-05-12T12:09:59.490Z,95014.98
2019-05-12T12:12:24.224Z,95015.41
2019-05-12T12:14:50.334Z,95015.42
2019-05-12T12:17:14.819Z,95006.52
2019-05-12T12:19:44.618Z,95009.05
2019-05-12T12:22:06.870Z,95009.17
2019-05-12T12:24:32.872Z,94992.57
2019-05-12T12:26:58.894Z,94996.98
2019-05-12T12:29:24.942Z,95000.26
2019-05-12T12:31:50.944Z,94995.52
2019-05-12T12:34:23.690Z,94995.72
2019-05-12T12:36:43.613Z,94993.06
2019-05-12T12:39:09.113Z,94996.33
2019-05-12T12:41:35.116Z,94991.75
2019-05-12T12:44:01.174Z,94990.91
2019-05-12T12:46:27.193Z,94983.44
2019-05-12T12:48:54.270Z,94988.04
2019-05-12T12:51:19.246Z,94984.25
2019-05-12T12:53:45.277Z,94989.07
2019-05-12T12:56:18.143Z,94996.33
2019-05-12T12:58:37.291Z,94995.09
2019-05-12T13:01:03.812Z,95002.35
2019-05-12T13:03:30.047Z,95000.19
2019-05-12T13:05:56.078Z,94996.73
2019-05-12T13:08:24.501Z,95000.39
2019-05-12T13:10:51.382Z,94994.36
2019-05-12T13:13:14.861Z,94993.94
2019-05-12T13:15:40.870Z,94996.80
2019-05-12T13:18:09.057Z,94999.38
2019-05-12T13:20:34.381Z,94992.52
2019-05-12T13:22:58.928Z,94988.61
2019-05-12T13:25:24.956Z,94982.48
2019-05-12T13:27:53.093Z,94980.33
2019-05-12T13:30:21.243Z,94976.84
2019-05-12T13:32:47.142Z,94980.41
2019-05-12T13:35:15.084Z,94979.20
2019-05-12T13:37:35.666Z,94974.38
2019-05-12T13:40:01.717Z,94968.76
2019-05-12T13:42:30.513Z,94975.41
2019-05-12T13:45:03.517Z,94972.45
2019-05-12T13:47:29.003Z,94972.03
2019-05-12T13:49:54.415Z,94967.70
2019-05-12T13:52:20.139Z,94976.52
2019-05-12T13:54:45.651Z,94978.87
2019-05-12T13:57:13.197Z,94972.95
2019-05-12T13:59:37.677Z,94976.22
2019-05-12T14:02:03.699Z,94974.06
2019-05-12T14:04:29.711Z,94982.04
2019-05-12T14:06:55.718Z,94986.14
2019-05-12T14:09:23.830Z,94989.30
2019-05-12T14:11:47.735Z,94979.28
2019-05-12T14:14:15.504Z,94982.44
2019-05-12T14:16:44.503Z,94983.47
2019-05-12T14:19:05.785Z,94982.94
2019-05-12T14:21:33.101Z,94982.02
2019-05-12T14:23:57.922Z,94984.59
2019-05-12T14:26:24.307Z,94987.25
2019-05-12T14:28:49.932Z,94987.67
2019-05-12T14:31:26.458Z,94984.19
2019-05-12T14:33:44.092Z,94987.25
2019-05-12T14:36:07.995Z,94985.39
2019-05-12T14:38:34.009Z,94987.86
2019-05-12T14:41:01.408Z,94986.64
2019-05-12T14:43:26.061Z,94980.41
2019-05-12T14:45:54.025Z,94996.45
2019-05-12T14:48:18.114Z,94993.70
2019-05-12T14:50:44.277Z,94988.69
2019-05-12T14:53:10.128Z,94993.59
2019-05-12T14:55:36.224Z,94990.02
2019-05-12T14:58:03.572Z,94986.03
2019-05-12T15:00:28.305Z,94988.98
2019-05-12T15:02:54.310Z,94991.15
2019-05-12T15:05:20.322Z,94988.98
2019-05-12T15:07:57.404Z,94986.86
2019-05-12T15:10:14.255Z,94993.59
2019-05-12T15:12:38.502Z,94997.16
2019-05-12T15:15:15.656Z,94997.28
2019-05-12T15:17:36.347Z,95003.52
2019-05-12T15:20:06.604Z,95006.09
2019-05-12T15:22:28.423Z,95005.75
2019-05-12T15:24:58.723Z,95014.27
2019-05-12T15:27:20.443Z,95011.19
2019-05-12T15:29:50.079Z,95004.55
2019-05-12T15:32:12.500Z,95005.75
2019-05-12T15:34:38.512Z,95003.21
2019-05-12T15:37:04.507Z,95009.86
2019-05-12T15:39:30.506Z,95004.95
2019-05-12T15:41:58.679Z,95006.67
2019-05-12T15:44:31.149Z,95006.59
2019-05-12T15:46:48.560Z,95006.59
2019-05-12T15:49:14.582Z,95008.53
2019-05-12T15:51:53.125Z,94996.98
2019-05-12T15:54:11.565Z,94998.41
2019-05-12T15:56:32.665Z,95001.78
2019-05-12T15:59:00.982Z,95000.45
2019-05-12T16:01:24.678Z,95004.03
2019-05-12T16:03:50.702Z,95002.81
2019-05-12T16:06:16.698Z,95004.86
2019-05-12T16:08:42.699Z,95007.60
2019-05-12T16:11:08.784Z,95005.36
2019-05-12T16:13:34.780Z,95005.89
2019-05-12T16:16:05.902Z,95007.52
2019-05-12T16:18:26.956Z,95011.51
2019-05-12T16:20:53.601Z,95013.25
2019-05-12T16:23:24.913Z,95009.27
2019-05-12T16:25:45.028Z,95011.09
2019-05-12T16:28:17.156Z,95013.34
2019-05-12T16:30:37.194Z,95012.92
2019-05-12T16:33:03.690Z,95019.07
2019-05-12T16:35:31.832Z,95014.25
2019-05-12T16:40:39.521Z,95013.03
2019-05-12T16:43:00.990Z,95010.80
2019-05-12T16:45:27.676Z,95010.80
2019-05-12T16:47:53.748Z,95010.88
2019-05-12T16:50:25.470Z,95009.13
2019-05-12T16:52:45.755Z,95013.12
2019-05-12T16:55:11.758Z,95012.33
2019-05-12T16:57:47.572Z,95014.45
2019-05-12T17:00:07.136Z,95020.30
2019-05-12T17:02:41.368Z,95016.81
2019-05-12T17:04:59.152Z,95019.05
2019-05-12T17:07:27.215Z,95026.61
2019-05-12T17:09:51.474Z,95025.70
2019-05-12T17:12:17.470Z,95027.95
2019-05-12T17:14:49.846Z,95036.88
2019-05-12T17:17:10.916Z,95036.45
2019-05-12T17:19:36.081Z,95039.91
2019-05-12T17:22:04.029Z,95035.55
2019-05-12T17:24:28.326Z,95035.12
2019-05-12T17:26:54.356Z,95034.21
2019-05-12T17:29:20.357Z,95040.33
2019-05-12T17:31:46.435Z,95049.14
2019-05-12T17:34:14.303Z,95049.02
2019-05-12T17:36:38.563Z,95053.02
2019-05-12T17:39:04.566Z,95051.69
2019-05-12T17:41:31.517Z,95055.59
2019-05-12T17:44:01.182Z,95053.84
2019-05-12T17:46:23.321Z,95052.02
2019-05-12T17:48:48.972Z,95054.27
2019-05-12T17:51:15.095Z,95056.00
2019-05-12T17:53:43.238Z,95057.42
2019-05-12T17:56:07.230Z,95058.67
2019-05-12T17:58:36.707Z,95052.93
2019-05-12T18:00:59.291Z,95050.27
2019-05-12T18:03:25.924Z,95060.49
2019-05-12T18:05:53.383Z,95064.40
2019-05-12T18:08:17.476Z,95064.07
2019-05-12T18:10:43.758Z,95072.38
2019-05-12T18:13:14.989Z,95077.70
2019-05-12T18:15:38.034Z,95077.70
2019-05-12T18:18:04.100Z,95084.23
2019-05-12T18:20:31.249Z,95079.11
2019-05-12T18:22:54.838Z,95078.91
2019-05-12T18:25:21.901Z,95076.67
2019-05-12T18:27:50.576Z,95078.00
2019-05-12T18:30:16.652Z,95078.91
2019-05-12T18:32:39.065Z,95076.75
2019-05-12T18:35:05.225Z,95078.91
2019-05-12T18:37:31.222Z,95078.50
2019-05-12T18:39:57.239Z,95081.16
2019-05-12T18:42:24.601Z,95082.08
2019-05-12T18:44:49.559Z,95080.44
2019-05-12T18:47:17.188Z,95080.36
2019-05-12T18:49:42.043Z,95075.54
2019-05-12T18:52:07.793Z,95075.13
2019-05-12T18:54:34.523Z,95076.45
2019-05-12T18:57:07.030Z,95080.74
2019-05-12T18:59:28.137Z,95083.41
2019-05-12T19:01:53.970Z,95080.24
2019-05-12T19:04:17.903Z,95078.83
2019-05-12T19:06:44.067Z,95085.48
2019-05-12T19:09:10.031Z,95083.32
2019-05-12T19:11:41.798Z,95085.06
2019-05-12T19:14:04.261Z,95087.20
2019-05-12T19:16:28.084Z,95080.55
2019-05-12T19:18:55.772Z,95089.86
2019-05-12T19:21:20.330Z,95088.14
2019-05-12T19:23:46.158Z,95090.80
2019-05-12T19:26:13.589Z,95084.95
2019-05-12T19:28:44.369Z,95089.27
2019-05-12T19:31:06.268Z,95088.86
2019-05-12T19:33:30.240Z,95084.87
2019-05-12T19:36:00.458Z,95093.27
2019-05-12T19:38:23.984Z,95087.11
2019-05-12T19:40:55.033Z,95086.28
2019-05-12T19:43:14.542Z,95089.36
2019-05-12T19:45:40.570Z,95087.11
2019-05-12T19:48:06.631Z,95093.77
2019-05-12T19:50:32.754Z,95096.42
2019-05-12T19:52:58.794Z,95096.84
2019-05-12T19:55:24.779Z,95094.17
2019-05-12T19:57:51.173Z,95090.61
2019-05-12T20:00:17.261Z,95095.81
2019-05-12T20:02:43.868Z,95093.07
2019-05-12T20:05:09.876Z,95097.05
2019-05-12T20:07:36.650Z,95097.55
2019-05-12T20:10:04.714Z,95093.56
2019-05-12T20:12:28.981Z,95098.77
2019-05-12T20:14:56.748Z,95100.10
2019-05-12T20:17:20.999Z,95096.94
2019-05-12T20:19:46.992Z,95096.11
2019-05-12T20:22:13.822Z,95095.11
2019-05-12T20:24:39.180Z,95095.11
2019-05-12T20:27:05.198Z,95088.88
2019-05-12T20:29:33.601Z,95089.38
2019-05-12T20:31:57.328Z,95090.71
2019-05-12T20:34:24.516Z,95095.83
2019-05-12T20:36:49.339Z,95098.08
2019-05-12T20:39:21.733Z,95102.48
2019-05-12T20:41:41.983Z,95102.78
2019-05-12T20:44:09.766Z,95097.66
2019-05-12T20:46:35.422Z,95096.25
2019-05-12T20:49:09.688Z,95101.04
2019-05-12T20:51:27.777Z,95099.70
2019-05-12T20:53:54.069Z,95099.70
2019-05-12T20:56:22.152Z,95103.81
2019-05-12T20:58:46.675Z,95095.34
2019-05-12T21:01:13.923Z,95103.31
2019-05-12T21:03:39.732Z,95092.26
2019-05-12T21:06:04.639Z,95086.52
2019-05-12T21:08:30.642Z,95085.49
2019-05-12T21:10:56.835Z,95091.73
2019-05-12T21:13:27.363Z,95087.36
2019-05-12T21:15:48.856Z,95090.40
2019-05-12T21:18:14.917Z,95089.90
2019-05-12T21:20:40.884Z,95090.81
2019-05-12T21:23:06.915Z,95084.99
2019-05-12T21:25:33.880Z,95086.41
2019-05-12T21:28:02.343Z,95086.74
2019-05-12T21:30:24.992Z,95083.17
2019-05-12T21:32:59.323Z,95085.83
2019-05-12T21:35:22.174Z,95085.30
2019-05-12T21:37:46.109Z,95078.23
2019-05-12T21:40:09.193Z,95080.51
2019-05-12T21:42:35.207Z,95073.74
2019-05-12T21:45:01.236Z,95074.45
2019-05-12T21:47:27.253Z,95080.31
2019-05-12T21:49:57.718Z,95073.74
2019-05-12T21:52:19.268Z,95068.01
2019-05-12T21:54:45.273Z,95072.00
2019-05-12T21:57:11.288Z,95075.57
2019-05-12T21:59:39.547Z,95067.59
2019-05-12T22:02:04.276Z,95069.45
2019-05-12T22:04:32.882Z,95072.53
2019-05-12T22:06:56.956Z,95072.53
2019-05-12T22:09:23.846Z,95076.72
2019-05-12T22:11:51.016Z,95081.01
2019-05-12T22:14:13.721Z,95083.67
2019-05-12T22:16:43.737Z,95084.99
2019-05-12T22:19:05.429Z,95081.92
2019-05-12T22:21:35.775Z,95084.16
2019-05-12T22:23:57.456Z,95080.70
2019-05-12T22:26:23.451Z,95078.05
2019-05-12T22:28:50.990Z,95074.97
2019-05-12T22:31:15.462Z,95080.29
2019-05-12T22:33:51.500Z,95074.55
2019-05-12T22:36:14.527Z,95077.30
2019-05-12T22:38:34.040Z,95073.72
2019-05-12T22:40:59.844Z,95072.51
2019-05-12T22:43:25.530Z,95068.52
2019-05-12T22:45:51.546Z,95070.27
2019-05-12T22:48:17.544Z,95070.27
2019-05-12T22:50:43.650Z,95068.10
2019-05-12T22:53:09.575Z,95071.98
2019-05-12T22:55:36.251Z,95067.69
2019-05-12T22:58:01.569Z,95061.53
2019-05-12T23:00:27.576Z,95057.55
2019-05-12T23:02:53.724Z,95058.80
2019-05-12T23:05:20.658Z,95061.53
2019-05-12T23:07:45.602Z,95063.81
2019-05-12T23:10:14.169Z,95062.98
2019-05-12T23:12:37.615Z,95063.39
2019-05-12T23:15:07.310Z,95066.97
2019-05-12T23:17:29.640Z,95072.28
2019-05-12T23:19:55.992Z,95070.54
2019-05-12T23:22:23.619Z,95068.80
2019-05-12T23:24:47.743Z,95074.95
2019-05-12T23:27:13.761Z,95071.88
2019-05-12T23:29:39.733Z,95075.45
2019-05-12T23:32:11.774Z,95079.44
2019-05-12T23:34:33.905Z,95076.36
2019-05-12T23:36:59.980Z,95078.64
2019-05-12T23:39:23.894Z,95082.63
2019-05-12T23:41:49.886Z,95084.87
2019-05-12T23:44:15.909Z,95090.61
2019-05-12T23:46:43.712Z,95089.66
2019-05-12T23:49:07.936Z,95081.68
2019-05-12T23:51:34.154Z,95084.87
2019-05-12T23:53:59.946Z,95086.61
2019-05-12T23:56:25.968Z,95085.78
2019-05-12T23:58:53.827Z,95083.13
